Time;durP1;ratioP1;P1;durP2;ratioP2;P2;SDS_P1;SDS_P2;PMS_P1;PMS_P2;Temp;Humidity;BMP_temperature;BMP_pressure;BME280_temperature;BME280_humidity;BME280_pressure;Samples;Min_cycle;Max_cycle;Signal;HPM_P1;HPM_P2
2022/10/21 00:02:03;;;;;;;60.03;25.63;;;11.90;99.90;;;;;;4993336;28;20480;-70
2022/10/21 00:04:30;;;;;;;63.33;26.15;;;11.90;99.90;;;;;;4993639;28;20101;-69
2022/10/21 00:06:56;;;;;;;59.38;25.75;;;11.90;99.90;;;;;;4993431;28;20073;-69
2022/10/21 00:09:22;;;;;;;58.40;25.83;;;11.90;99.90;;;;;;4993406;28;20511;-69
2022/10/21 00:11:47;;;;;;;59.65;25.40;;;11.90;99.90;;;;;;4977319;28;20053;-70
2022/10/21 00:14:13;;;;;;;65.10;27.75;;;11.80;99.90;;;;;;4993064;28;20060;-70
2022/10/21 00:16:39;;;;;;;62.65;27.08;;;11.90;99.90;;;;;;4993285;28;20439;-69
2022/10/21 00:19:04;;;;;;;64.07;27.77;;;11.90;99.90;;;;;;4976820;28;20042;-69
2022/10/21 00:21:30;;;;;;;70.45;26.55;;;11.90;99.90;;;;;;4993056;28;20073;-69
2022/10/21 00:23:56;;;;;;;54.10;25.02;;;11.90;99.90;;;;;;4993268;28;20042;-69
2022/10/21 00:26:21;;;;;;;56.33;25.98;;;11.90;99.90;;;;;;4960837;28;20128;-69
2022/10/21 00:28:47;;;;;;;67.15;26.63;;;11.80;99.90;;;;;;4976926;28;20061;-69
2022/10/21 00:31:15;;;;;;;60.97;24.88;;;11.80;99.90;;;;;;4992602;28;20050;-69
2022/10/21 00:33:41;;;;;;;58.00;25.73;;;11.70;99.90;;;;;;4976755;28;20072;-69
2022/10/21 00:36:13;;;;;;;64.28;26.45;;;11.80;99.90;;;;;;4992623;28;20077;-70
2022/10/21 00:38:39;;;;;;;67.57;26.08;;;11.80;99.90;;;;;;4976950;28;20096;-70
2022/10/21 00:41:05;;;;;;;57.05;24.92;;;11.80;99.90;;;;;;4992561;28;20046;-69
2022/10/21 00:43:31;;;;;;;61.03;26.20;;;11.80;99.90;;;;;;4992878;28;20054;-69
2022/10/21 00:46:01;;;;;;;60.55;27.02;;;11.80;99.90;;;;;;4976916;28;20141;-70
2022/10/21 00:48:32;;;;;;;69.25;27.85;;;11.80;99.90;;;;;;4976433;28;20113;-69
2022/10/21 00:51:02;;;;;;;67.57;26.52;;;11.80;99.90;;;;;;4992932;28;20050;-69
2022/10/21 00:53:29;;;;;;;67.63;26.98;;;11.80;99.90;;;;;;4976368;28;20474;-69
2022/10/21 00:56:00;;;;;;;61.20;25.50;;;11.80;99.90;;;;;;4976591;28;20129;-69
2022/10/21 00:58:30;;;;;;;75.07;27.02;;;11.80;99.90;;;;;;4992583;28;20471;-70
2022/10/21 01:00:58;;;;;;;65.88;26.25;;;11.70;99.90;;;;;;4976215;28;20046;-69
2022/10/21 01:03:25;;;;;;;65.75;26.48;;;11.70;99.90;;;;;;4976105;28;20617;-69
2022/10/21 01:05:52;;;;;;;63.97;26.30;;;11.70;99.90;;;;;;4992640;28;20058;-69
2022/10/21 01:08:19;;;;;;;60.78;26.00;;;11.80;99.90;;;;;;4976032;28;20053;-70
2022/10/21 01:10:45;;;;;;;66.75;26.17;;;11.80;99.90;;;;;;4976372;28;20482;-69
2022/10/21 01:13:24;;;;;;;68.28;26.25;;;11.80;99.90;;;;;;4960287;28;20129;-70
2022/10/21 01:16:13;;;;;;;71.38;26.58;;;11.80;99.90;;;;;;4976426;28;20133;-70
2022/10/21 01:18:57;;;;;;;64.88;25.45;;;11.80;99.90;;;;;;4992672;28;20046;-71
2022/10/21 01:21:31;;;;;;;68.75;25.75;;;11.80;99.90;;;;;;4993237;28;20462;-69
2022/10/21 01:24:09;;;;;;;65.88;26.17;;;11.90;99.90;;;;;;4992531;28;20050;-69
2022/10/21 01:27:08;;;;;;;64.10;25.38;;;11.90;99.90;;;;;;4992492;28;20054;-71
2022/10/21 01:30:05;;;;;;;62.05;25.95;;;11.90;99.90;;;;;;4992357;28;20054;-69
2022/10/21 01:32:39;;;;;;;65.18;26.52;;;11.80;99.90;;;;;;4992272;28;20054;-69
2022/10/21 01:35:12;;;;;;;63.45;24.77;;;11.80;99.90;;;;;;4992442;28;20053;-69
2022/10/21 01:38:01;;;;;;;70.25;24.75;;;11.80;99.90;;;;;;4992391;28;20061;-69
2022/10/21 01:40:31;;;;;;;59.63;24.75;;;11.80;99.90;;;;;;4992036;28;20463;-71
2022/10/21 01:43:05;;;;;;;61.17;25.73;;;11.80;99.90;;;;;;4992379;28;20057;-70
2022/10/21 01:45:41;;;;;;;57.88;25.23;;;11.80;99.90;;;;;;4975962;28;20058;-69
2022/10/21 01:48:12;;;;;;;61.92;25.20;;;11.80;99.90;;;;;;4979244;28;20053;-69
2022/10/21 01:50:44;;;;;;;65.65;25.00;;;11.80;99.90;;;;;;4995846;28;20450;-70
2022/10/21 01:53:13;;;;;;;62.55;24.55;;;11.80;99.90;;;;;;4979958;28;20050;-70
2022/10/21 01:55:40;;;;;;;71.70;25.38;;;11.80;99.90;;;;;;4995991;28;20056;-70
2022/10/21 01:58:11;;;;;;;66.80;23.42;;;11.80;99.90;;;;;;4995911;28;20061;-69
2022/10/21 02:00:39;;;;;;;63.42;24.00;;;11.80;99.90;;;;;;4979682;28;20046;-70
2022/10/21 02:03:09;;;;;;;57.20;24.40;;;11.80;99.90;;;;;;4979641;28;20380;-70
2022/10/21 02:05:35;;;;;;;61.72;24.02;;;11.80;99.90;;;;;;4995664;28;20050;-70
2022/10/21 02:08:01;;;;;;;65.32;24.90;;;11.80;99.90;;;;;;4978997;28;20066;-70
2022/10/21 02:10:32;;;;;;;62.80;26.23;;;11.80;99.90;;;;;;4995516;28;20081;-69
2022/10/21 02:13:01;;;;;;;68.05;25.92;;;11.80;99.90;;;;;;4995682;28;20057;-69
2022/10/21 02:15:27;;;;;;;67.00;25.65;;;12.00;99.90;;;;;;4995399;28;20046;-70
2022/10/21 02:17:57;;;;;;;66.97;25.35;;;12.00;99.90;;;;;;4995600;28;20459;-70
2022/10/21 02:20:26;;;;;;;62.25;24.08;;;12.00;99.90;;;;;;4995151;28;20490;-70
2022/10/21 02:22:52;;;;;;;68.00;25.92;;;12.10;99.90;;;;;;4995557;28;20055;-70
2022/10/21 02:25:25;;;;;;;62.63;26.80;;;12.10;99.90;;;;;;4947193;28;20046;-69
2022/10/21 02:27:52;;;;;;;70.28;26.50;;;12.30;99.90;;;;;;4995489;28;20142;-70
2022/10/21 02:30:18;;;;;;;65.20;25.77;;;12.30;99.90;;;;;;4978979;28;20116;-70
2022/10/21 02:33:02;;;;;;;71.47;26.92;;;12.30;99.90;;;;;;4979139;28;20065;-69
2022/10/21 02:35:35;;;;;;;66.60;25.98;;;12.40;99.90;;;;;;4994880;28;20407;-70
2022/10/21 02:38:24;;;;;;;65.97;25.08;;;12.50;99.90;;;;;;4979268;28;20050;-70
2022/10/21 02:40:57;;;;;;;65.60;25.52;;;12.50;99.90;;;;;;4978936;28;20053;-70
2022/10/21 02:43:37;;;;;;;62.55;25.50;;;12.50;99.90;;;;;;4978566;28;20394;-70
2022/10/21 02:46:09;;;;;;;60.60;24.20;;;12.50;99.90;;;;;;4995109;28;20457;-70
2022/10/21 02:48:37;;;;;;;65.95;24.45;;;12.60;99.90;;;;;;4978663;28;20097;-70
2022/10/21 02:51:04;;;;;;;54.95;23.70;;;12.60;99.90;;;;;;4978759;28;20046;-70
2022/10/21 02:53:30;;;;;;;56.38;24.20;;;12.60;99.90;;;;;;4994762;28;20073;-70
2022/10/21 02:55:56;;;;;;;58.08;24.00;;;12.60;99.90;;;;;;4962760;28;20554;-69
2022/10/21 02:58:21;;;;;;;56.15;24.92;;;12.60;99.90;;;;;;4994628;28;20050;-69
2022/10/21 03:00:47;;;;;;;55.55;23.08;;;12.60;99.90;;;;;;4978121;28;20049;-69
2022/10/21 03:03:13;;;;;;;57.40;23.40;;;12.70;99.90;;;;;;4978659;28;20054;-69
2022/10/21 03:05:39;;;;;;;52.67;24.13;;;12.70;99.90;;;;;;4994650;28;20057;-69
2022/10/21 03:08:04;;;;;;;53.50;23.90;;;12.70;99.90;;;;;;4977862;28;20132;-69
2022/10/21 03:10:30;;;;;;;47.13;22.17;;;12.70;99.90;;;;;;4978359;28;20093;-68
2022/10/21 03:12:56;;;;;;;46.92;21.73;;;12.80;99.90;;;;;;4994586;28;20368;-69
2022/10/21 03:15:22;;;;;;;49.25;21.73;;;12.80;99.90;;;;;;4978211;28;20156;-68
2022/10/21 03:17:47;;;;;;;55.00;21.73;;;12.80;99.90;;;;;;4994523;28;20081;-68
2022/10/21 03:20:13;;;;;;;59.97;22.60;;;12.80;99.90;;;;;;4994769;28;20571;-68
2022/10/21 03:22:39;;;;;;;57.15;22.48;;;12.90;99.90;;;;;;4978113;28;20050;-68
2022/10/21 03:25:05;;;;;;;52.72;21.98;;;12.90;99.90;;;;;;4961967;28;20043;-67
2022/10/21 03:27:32;;;;;;;54.03;21.60;;;13.00;99.90;;;;;;4993976;28;20100;-68
2022/10/21 03:29:57;;;;;;;65.57;24.00;;;12.90;99.90;;;;;;4977949;28;20513;-67
2022/10/21 03:32:23;;;;;;;61.75;23.80;;;13.00;99.90;;;;;;4993830;28;20077;-71
2022/10/21 03:34:49;;;;;;;67.07;24.50;;;13.00;99.90;;;;;;4978155;28;20093;-68
2022/10/21 03:37:14;;;;;;;59.80;23.75;;;13.10;99.90;;;;;;4994277;28;20436;-69
2022/10/21 03:39:40;;;;;;;60.25;23.10;;;13.10;99.90;;;;;;4993976;28;20046;-68
2022/10/21 03:42:06;;;;;;;58.65;21.98;;;13.10;99.90;;;;;;4961472;28;20042;-68
2022/10/21 03:44:31;;;;;;;57.13;22.90;;;13.20;99.90;;;;;;4993320;28;20483;-68
2022/10/21 03:46:57;;;;;;;69.85;23.50;;;13.10;99.90;;;;;;4645057;28;10000330;-69
2022/10/21 03:49:23;;;;;;;112.57;25.90;;;13.10;99.90;;;;;;4975218;28;20050;-70
2022/10/21 03:51:49;;;;;;;63.97;23.15;;;13.10;99.90;;;;;;4959241;28;20057;-68
2022/10/21 03:54:15;;;;;;;62.70;23.33;;;13.10;99.90;;;;;;4959202;28;20054;-68
2022/10/21 03:56:41;;;;;;;75.78;24.30;;;13.20;99.90;;;;;;4959103;28;20546;-68
2022/10/21 03:59:07;;;;;;;68.25;24.10;;;13.20;99.90;;;;;;4974413;28;20042;-70
2022/10/21 04:01:32;;;;;;;72.75;25.42;;;13.20;99.90;;;;;;4958627;28;20050;-69
2022/10/21 04:03:58;;;;;;;64.78;24.20;;;13.20;99.90;;;;;;4958850;28;20053;-69
2022/10/21 04:06:24;;;;;;;62.35;23.30;;;13.20;99.90;;;;;;4991183;28;20046;-70
2022/10/21 04:08:49;;;;;;;54.58;22.58;;;13.30;99.90;;;;;;4973974;28;20054;-69
2022/10/21 04:11:15;;;;;;;61.63;24.17;;;13.30;99.90;;;;;;4974207;28;20080;-70
2022/10/21 04:13:41;;;;;;;62.05;24.58;;;13.30;99.90;;;;;;4990441;28;20042;-70
2022/10/21 04:16:11;;;;;;;64.07;24.08;;;13.30;99.90;;;;;;4990867;28;20042;-70
2022/10/21 04:18:36;;;;;;;57.90;22.23;;;13.30;99.90;;;;;;4990752;28;20084;-71
2022/10/21 04:21:02;;;;;;;62.53;23.17;;;13.30;99.90;;;;;;4990135;28;20475;-70
2022/10/21 04:23:28;;;;;;;52.75;22.25;;;13.30;99.90;;;;;;4958592;28;20038;-70
2022/10/21 04:25:54;;;;;;;55.83;22.58;;;13.30;99.90;;;;;;4984247;28;20058;-69
2022/10/21 04:28:19;;;;;;;54.88;22.92;;;13.30;99.90;;;;;;4974625;28;20400;-69
2022/10/21 04:30:45;;;;;;;57.80;22.98;;;13.30;99.90;;;;;;4990657;28;20050;-70
2022/10/21 04:33:11;;;;;;;66.43;23.70;;;13.30;99.90;;;;;;4973880;28;20050;-69
2022/10/21 04:35:39;;;;;;;59.45;22.88;;;13.30;99.90;;;;;;5009212;28;20046;-70
2022/10/21 04:38:04;;;;;;;60.35;23.40;;;13.30;99.90;;;;;;4976286;28;20046;-69
2022/10/21 04:40:30;;;;;;;61.88;23.63;;;13.20;99.90;;;;;;4975891;28;20050;-70
2022/10/21 04:42:56;;;;;;;54.83;21.60;;;13.20;99.90;;;;;;4992087;28;20065;-69
2022/10/21 04:45:21;;;;;;;59.97;23.05;;;13.10;99.90;;;;;;4989442;28;20047;-69
2022/10/21 04:47:47;;;;;;;61.95;22.05;;;13.10;99.90;;;;;;5006155;28;20049;-70
2022/10/21 04:50:13;;;;;;;53.50;21.35;;;13.10;99.90;;;;;;5012088;28;20046;-69
2022/10/21 04:52:38;;;;;;;55.22;21.48;;;13.10;99.90;;;;;;4995913;28;20057;-69
2022/10/21 04:55:05;;;;;;;59.13;22.15;;;12.90;99.90;;;;;;5013353;28;20085;-70
2022/10/21 04:57:31;;;;;;;46.55;20.35;;;12.90;99.90;;;;;;5028845;28;20132;-70
2022/10/21 04:59:57;;;;;;;62.40;23.17;;;12.90;99.90;;;;;;4995506;28;20478;-70
2022/10/21 05:02:23;;;;;;;62.42;23.77;;;12.90;99.90;;;;;;5012298;28;20048;-69
2022/10/21 05:04:49;;;;;;;55.53;20.83;;;13.00;99.90;;;;;;4995838;28;20145;-70
2022/10/21 05:07:15;;;;;;;57.40;23.23;;;13.00;99.90;;;;;;4979277;28;20133;-69
2022/10/21 05:09:40;;;;;;;59.90;22.38;;;12.90;99.90;;;;;;5011839;28;20045;-69
2022/10/21 05:12:06;;;;;;;60.67;23.33;;;12.90;99.90;;;;;;5012153;28;20057;-69
2022/10/21 05:14:32;;;;;;;62.38;23.50;;;12.90;99.90;;;;;;5012217;28;20050;-69
2022/10/21 05:16:58;;;;;;;68.95;22.55;;;12.90;99.90;;;;;;4995615;28;20049;-69
2022/10/21 05:19:23;;;;;;;53.45;21.88;;;12.90;99.90;;;;;;4979745;28;20125;-69
2022/10/21 05:21:49;;;;;;;54.65;21.27;;;12.90;99.90;;;;;;5009150;28;20042;-69
2022/10/21 05:24:16;;;;;;;59.92;21.77;;;12.80;99.90;;;;;;4996586;28;20491;-70
2022/10/21 05:26:41;;;;;;;54.65;21.30;;;12.80;99.90;;;;;;4999914;28;20054;-69
2022/10/21 05:29:07;;;;;;;52.13;20.88;;;12.80;99.90;;;;;;5005578;28;20548;-70
2022/10/21 05:31:33;;;;;;;57.90;22.05;;;12.80;99.90;;;;;;5007570;28;20053;-70
2022/10/21 05:33:58;;;;;;;51.22;21.83;;;12.80;99.90;;;;;;5004839;28;20546;-69
2022/10/21 05:36:24;;;;;;;56.88;21.92;;;12.80;99.90;;;;;;4991281;28;20038;-69
2022/10/21 05:38:51;;;;;;;52.80;21.00;;;12.70;99.90;;;;;;4987480;28;20074;-70
2022/10/21 05:41:17;;;;;;;57.95;21.48;;;12.70;99.90;;;;;;4993885;28;20034;-69
2022/10/21 05:43:42;;;;;;;59.78;21.67;;;12.60;99.90;;;;;;4999298;28;20115;-69
2022/10/21 05:46:08;;;;;;;48.92;21.20;;;12.70;99.90;;;;;;4999565;28;20103;-69
2022/10/21 05:48:35;;;;;;;62.05;22.05;;;12.60;99.90;;;;;;5015784;28;20050;-69
2022/10/21 05:51:01;;;;;;;54.95;21.38;;;12.60;99.90;;;;;;4999182;28;20046;-69
2022/10/21 05:53:27;;;;;;;53.20;21.13;;;12.60;99.90;;;;;;5015725;28;20049;-69
2022/10/21 05:55:54;;;;;;;56.53;20.77;;;12.60;99.90;;;;;;5015056;28;20406;-69
2022/10/21 05:58:20;;;;;;;63.17;21.90;;;12.60;99.90;;;;;;5015506;28;20054;-71
2022/10/21 06:00:53;;;;;;;57.05;22.13;;;12.70;99.90;;;;;;4997941;28;20046;-70
2022/10/21 06:03:29;;;;;;;55.45;21.52;;;12.70;99.90;;;;;;4998385;28;20402;-70
2022/10/21 06:05:59;;;;;;;53.63;21.73;;;12.70;99.90;;;;;;4983459;28;20050;-69
2022/10/21 06:08:26;;;;;;;52.28;22.15;;;12.60;99.90;;;;;;4998408;28;20058;-70
2022/10/21 06:11:13;;;;;;;47.88;19.73;;;12.70;99.90;;;;;;5014460;28;20054;-70
2022/10/21 06:13:40;;;;;;;53.97;21.33;;;12.60;99.90;;;;;;5014941;28;20050;-70
2022/10/21 06:16:07;;;;;;;52.72;21.38;;;12.60;99.90;;;;;;4997966;28;20057;-70
2022/10/21 06:18:33;;;;;;;58.47;21.63;;;12.60;99.90;;;;;;4997227;28;20085;-71
2022/10/21 06:20:59;;;;;;;51.83;20.75;;;12.60;99.90;;;;;;4663842;28;10000223;-70
2022/10/21 06:23:25;;;;;;;59.78;21.73;;;12.60;99.90;;;;;;4993080;28;20499;-70
2022/10/21 06:26:06;;;;;;;50.30;20.98;;;12.60;99.90;;;;;;4992696;28;20049;-70
2022/10/21 06:28:35;;;;;;;48.90;20.08;;;12.60;99.90;;;;;;4993013;28;20097;-70
2022/10/21 06:31:02;;;;;;;61.45;21.30;;;12.50;99.90;;;;;;4991920;28;20109;-71
2022/10/21 06:33:28;;;;;;;53.75;21.77;;;12.50;99.90;;;;;;4992250;28;20038;-71
2022/10/21 06:35:54;;;;;;;56.80;21.92;;;12.60;99.90;;;;;;4991961;28;20050;-70
2022/10/21 06:38:20;;;;;;;56.03;20.88;;;12.60;99.90;;;;;;4976318;28;20134;-70
2022/10/21 06:40:47;;;;;;;58.55;21.00;;;12.50;99.90;;;;;;4975946;28;20046;-70
2022/10/21 06:43:14;;;;;;;71.05;22.05;;;12.60;99.90;;;;;;4975577;28;20077;-70
2022/10/21 06:45:39;;;;;;;56.58;22.27;;;12.50;99.90;;;;;;4976539;28;20049;-70
2022/10/21 06:48:05;;;;;;;59.17;21.42;;;12.50;99.90;;;;;;4960270;28;20425;-70
2022/10/21 06:50:31;;;;;;;56.88;22.45;;;12.50;99.90;;;;;;4976408;28;20062;-71
2022/10/21 06:52:57;;;;;;;55.00;21.67;;;12.50;99.90;;;;;;4967931;28;20045;-72
2022/10/21 06:55:23;;;;;;;53.67;21.15;;;12.60;99.90;;;;;;5014191;28;20050;-69
2022/10/21 06:57:49;;;;;;;63.38;22.25;;;12.60;99.90;;;;;;4998171;28;20085;-69
2022/10/21 07:00:15;;;;;;;62.42;23.10;;;12.60;99.90;;;;;;4997800;28;20081;-69
2022/10/21 07:02:41;;;;;;;58.20;21.88;;;12.70;99.90;;;;;;5014352;28;20510;-70
2022/10/21 07:05:07;;;;;;;63.53;23.52;;;12.70;99.90;;;;;;5014115;28;20088;-70
2022/10/21 07:07:33;;;;;;;62.88;23.08;;;12.70;99.90;;;;;;4997515;28;20053;-70
2022/10/21 07:09:59;;;;;;;55.75;21.88;;;12.70;99.90;;;;;;4997831;28;20515;-70
2022/10/21 07:12:26;;;;;;;59.65;22.58;;;12.70;99.90;;;;;;5014019;28;20533;-70
2022/10/21 07:14:53;;;;;;;54.67;22.20;;;12.70;99.90;;;;;;5014158;28;20128;-70
2022/10/21 07:17:19;;;;;;;61.72;20.90;;;12.70;99.90;;;;;;5014061;28;20053;-70
2022/10/21 07:19:45;;;;;;;60.55;22.73;;;12.70;99.90;;;;;;4997918;28;20054;-70
2022/10/21 07:22:13;;;;;;;55.50;21.33;;;12.70;99.90;;;;;;4980980;28;20050;-70
2022/10/21 07:24:39;;;;;;;58.67;21.80;;;12.80;99.90;;;;;;5030505;28;20045;-70
2022/10/21 07:27:04;;;;;;;58.13;21.60;;;12.80;99.90;;;;;;4997422;28;20483;-70
2022/10/21 07:29:30;;;;;;;70.97;23.30;;;12.80;99.90;;;;;;5013939;28;20052;-70
2022/10/21 07:31:56;;;;;;;56.60;22.13;;;12.80;99.90;;;;;;5013563;28;20094;-73
2022/10/21 07:34:23;;;;;;;57.80;23.90;;;12.90;99.90;;;;;;5013778;28;20450;-70
2022/10/21 07:36:51;;;;;;;53.72;22.83;;;13.00;99.90;;;;;;4997455;28;20042;-70
2022/10/21 07:39:20;;;;;;;58.17;23.95;;;13.10;99.90;;;;;;5013462;28;20092;-70
2022/10/21 07:41:49;;;;;;;63.40;23.95;;;13.30;99.90;;;;;;4997123;28;20458;-71
2022/10/21 07:44:16;;;;;;;55.25;23.90;;;13.30;99.90;;;;;;5012634;28;20045;-70
2022/10/21 07:46:43;;;;;;;53.80;23.45;;;13.40;99.90;;;;;;4997261;28;20049;-70
2022/10/21 07:49:10;;;;;;;52.55;21.92;;;13.50;99.90;;;;;;5013284;28;20046;-70
2022/10/21 07:51:36;;;;;;;50.40;21.00;;;13.50;99.90;;;;;;4981187;28;20077;-70
2022/10/21 07:54:02;;;;;;;55.58;22.80;;;13.50;99.90;;;;;;4997116;28;20080;-70
2022/10/21 07:56:38;;;;;;;53.38;22.45;;;13.50;99.90;;;;;;5013500;28;20415;-70
2022/10/21 07:59:04;;;;;;;54.80;21.80;;;13.60;99.90;;;;;;4996241;28;20431;-71
2022/10/21 08:01:32;;;;;;;57.50;20.88;;;13.60;99.90;;;;;;4992014;28;20050;-70
2022/10/21 08:03:58;;;;;;;50.40;20.95;;;13.70;99.90;;;;;;4630677;28;10000226;-70
2022/10/21 08:06:25;;;;;;;47.95;20.75;;;13.70;99.90;;;;;;4975522;28;20058;-70
2022/10/21 08:08:52;;;;;;;51.35;22.10;;;13.70;99.90;;;;;;4985286;28;20058;-71
2022/10/21 08:11:36;;;;;;;46.90;20.98;;;13.80;99.90;;;;;;4958277;28;20042;-70
2022/10/21 08:14:05;;;;;;;43.85;20.38;;;13.90;99.90;;;;;;4974661;28;20157;-74
2022/10/21 08:16:31;;;;;;;49.08;22.73;;;14.00;99.90;;;;;;4990749;28;20129;-72
2022/10/21 08:18:59;;;;;;;45.20;22.23;;;14.20;99.90;;;;;;4958559;28;20129;-71
2022/10/21 08:21:26;;;;;;;47.30;22.52;;;14.50;99.90;;;;;;4974142;28;20043;-71
2022/10/21 08:23:52;;;;;;;41.25;21.55;;;14.70;99.90;;;;;;4958281;28;20058;-71
2022/10/21 08:26:18;;;;;;;39.25;20.90;;;14.90;99.90;;;;;;4989949;28;20497;-72
2022/10/21 08:28:44;;;;;;;38.92;20.08;;;15.00;99.90;;;;;;4990300;28;20721;-70
2022/10/21 08:31:18;;;;;;;35.03;18.95;;;15.20;99.90;;;;;;4990579;28;20050;-70
2022/10/21 08:33:44;;;;;;;37.33;19.75;;;15.30;99.90;;;;;;4974429;28;20070;-70
2022/10/21 08:36:15;;;;;;;32.53;18.90;;;15.40;99.90;;;;;;4989686;28;20399;-71
2022/10/21 08:38:40;;;;;;;34.50;18.90;;;15.60;99.90;;;;;;4973753;28;20453;-71
2022/10/21 08:41:31;;;;;;;29.40;17.05;;;15.80;99.90;;;;;;4974031;28;20054;-71
2022/10/21 08:44:05;;;;;;;28.58;16.17;;;15.80;99.90;;;;;;4976418;28;20058;-71
2022/10/21 08:46:37;;;;;;;28.83;16.90;;;15.90;99.90;;;;;;4974419;28;20058;-71
2022/10/21 08:49:33;;;;;;;31.38;16.60;;;16.00;99.90;;;;;;4990566;28;20056;-70
2022/10/21 08:52:04;;;;;;;24.02;14.77;;;16.10;99.90;;;;;;4962531;28;20054;-71
2022/10/21 08:54:58;;;;;;;23.35;14.50;;;16.00;99.90;;;;;;4958096;28;20065;-70
2022/10/21 08:57:24;;;;;;;27.13;15.50;;;16.10;99.90;;;;;;4990187;28;20125;-70
2022/10/21 08:59:50;;;;;;;23.88;15.05;;;16.20;99.90;;;;;;4990325;28;20402;-70
2022/10/21 09:02:37;;;;;;;23.38;13.75;;;16.30;99.90;;;;;;4989402;28;20046;-70
2022/10/21 09:05:14;;;;;;;26.45;14.05;;;16.20;99.90;;;;;;4957870;28;20550;-71
2022/10/21 09:08:02;;;;;;;22.95;14.23;;;16.30;99.90;;;;;;4990155;28;20058;-70
2022/10/21 09:11:09;;;;;;;25.08;14.35;;;16.30;99.90;;;;;;4989622;28;20419;-71
2022/10/21 09:13:37;;;;;;;21.02;13.88;;;16.40;99.90;;;;;;4942363;28;20050;-72
2022/10/21 09:16:03;;;;;;;27.70;15.10;;;16.40;99.90;;;;;;4958024;28;20134;-71
2022/10/21 09:18:56;;;;;;;24.25;14.20;;;16.50;99.90;;;;;;4990924;28;20129;-71
2022/10/21 09:21:44;;;;;;;23.48;14.07;;;16.50;99.90;;;;;;4989779;28;20054;-70
2022/10/21 09:24:14;;;;;;;25.55;14.05;;;16.60;99.90;;;;;;4957950;28;20046;-70
2022/10/21 09:26:42;;;;;;;23.20;14.15;;;16.60;99.90;;;;;;4989896;28;20117;-70
2022/10/21 09:29:32;;;;;;;21.23;13.23;;;16.70;99.90;;;;;;4990184;28;20042;-71
2022/10/21 09:32:21;;;;;;;20.42;13.40;;;16.50;99.90;;;;;;4964268;28;20065;-70
2022/10/21 09:35:05;;;;;;;21.52;13.57;;;16.40;99.90;;;;;;4979339;28;20058;-71
2022/10/21 09:37:39;;;;;;;24.08;14.50;;;16.50;99.90;;;;;;4989215;28;20050;-70
2022/10/21 09:40:27;;;;;;;24.38;14.30;;;16.50;99.90;;;;;;4990068;28;20051;-72
2022/10/21 09:42:57;;;;;;;23.73;13.07;;;16.40;99.90;;;;;;4989913;28;20112;-71
2022/10/21 09:45:29;;;;;;;22.27;13.43;;;16.30;99.90;;;;;;4973780;28;20057;-71
2022/10/21 09:47:58;;;;;;;26.17;14.18;;;16.40;99.90;;;;;;4989997;28;20043;-70
2022/10/21 09:50:25;;;;;;;24.88;13.90;;;16.50;99.90;;;;;;4972951;28;20546;-70
2022/10/21 09:52:58;;;;;;;22.23;13.80;;;16.70;99.90;;;;;;4957567;28;20054;-70
2022/10/21 09:55:25;;;;;;;19.73;12.98;;;16.80;99.90;;;;;;4973603;28;20082;-70
2022/10/21 09:57:57;;;;;;;22.55;12.98;;;17.00;99.90;;;;;;4973605;28;20065;-70
2022/10/21 10:00:48;;;;;;;19.17;11.90;;;17.10;99.90;;;;;;4989639;28;20054;-70
2022/10/21 10:03:35;;;;;;;20.50;12.05;;;17.20;99.90;;;;;;4989012;28;20125;-71
2022/10/21 10:06:03;;;;;;;19.52;12.40;;;17.30;99.90;;;;;;4989833;28;20490;-72
2022/10/21 10:08:38;;;;;;;20.38;12.88;;;17.50;99.90;;;;;;4971675;28;20068;-70
2022/10/21 10:11:10;;;;;;;17.27;11.30;;;17.70;99.90;;;;;;4942017;28;20050;-71
2022/10/21 10:13:48;;;;;;;23.30;11.52;;;17.70;99.90;;;;;;4957231;28;20055;-71
2022/10/21 10:16:28;;;;;;;17.00;11.15;;;17.80;99.90;;;;;;4957912;28;20046;-70
2022/10/21 10:19:23;;;;;;;17.80;11.05;;;17.80;99.90;;;;;;4973575;28;20495;-72
2022/10/21 10:22:12;;;;;;;19.85;11.82;;;17.90;99.90;;;;;;4962018;28;20069;-70
2022/10/21 10:24:39;;;;;;;18.45;11.77;;;17.90;99.90;;;;;;4960735;28;20058;-70
2022/10/21 10:27:14;;;;;;;21.33;12.07;;;18.10;99.90;;;;;;4976197;28;20054;-71
2022/10/21 10:29:41;;;;;;;17.13;10.52;;;18.10;99.90;;;;;;4960766;28;20058;-71
2022/10/21 10:32:12;;;;;;;19.98;11.38;;;18.00;99.90;;;;;;4976857;28;20054;-70
2022/10/21 10:34:52;;;;;;;19.85;11.35;;;17.90;99.90;;;;;;4976792;28;20518;-70
2022/10/21 10:37:21;;;;;;;16.30;11.80;;;17.90;99.90;;;;;;4976809;28;20050;-70
2022/10/21 10:39:52;;;;;;;21.38;12.32;;;18.10;99.90;;;;;;4976448;28;20506;-71
2022/10/21 10:42:20;;;;;;;19.63;12.38;;;17.60;99.90;;;;;;4976458;28;20453;-70
2022/10/21 10:44:50;;;;;;;19.58;11.88;;;17.50;99.90;;;;;;4976748;28;20078;-70
2022/10/21 10:47:29;;;;;;;20.63;11.45;;;17.40;99.90;;;;;;4976552;28;20076;-71
2022/10/21 10:49:55;;;;;;;19.48;11.82;;;17.40;99.90;;;;;;4976145;28;20491;-70
2022/10/21 10:52:23;;;;;;;18.63;11.20;;;17.30;99.90;;;;;;4960557;28;20046;-70
2022/10/21 10:55:15;;;;;;;16.65;11.82;;;17.40;99.90;;;;;;4976344;28;20093;-71
2022/10/21 10:57:44;;;;;;;20.50;11.60;;;17.40;99.90;;;;;;4976211;28;20529;-70
2022/10/21 11:00:20;;;;;;;19.27;11.02;;;17.40;99.90;;;;;;4976265;28;20495;-70
2022/10/21 11:03:00;;;;;;;18.30;10.77;;;17.40;99.90;;;;;;4959388;28;20054;-70
2022/10/21 11:05:58;;;;;;;18.93;10.60;;;17.50;99.90;;;;;;4976259;28;20395;-71
2022/10/21 11:08:37;;;;;;;18.15;10.70;;;17.50;99.90;;;;;;4976919;28;20133;-70
2022/10/21 11:11:10;;;;;;;18.90;11.20;;;17.50;99.90;;;;;;4976179;28;20061;-71
2022/10/21 11:13:38;;;;;;;16.52;10.90;;;17.60;99.90;;;;;;4975497;28;20073;-71
2022/10/21 11:16:04;;;;;;;18.48;12.05;;;17.60;99.90;;;;;;4976125;28;20050;-70
2022/10/21 11:18:35;;;;;;;17.83;12.00;;;17.60;99.90;;;;;;4975345;28;20451;-70
2022/10/21 11:21:08;;;;;;;20.93;12.47;;;17.60;99.90;;;;;;4991426;28;20046;-71
2022/10/21 11:24:15;;;;;;;20.45;12.52;;;17.70;99.90;;;;;;4991912;28;20078;-71
2022/10/21 11:27:12;;;;;;;19.70;11.45;;;17.70;99.90;;;;;;4991573;28;20046;-70
2022/10/21 11:29:56;;;;;;;16.80;10.85;;;17.80;99.90;;;;;;4975865;28;20065;-71
2022/10/21 11:32:42;;;;;;;15.85;9.55;;;17.80;99.90;;;;;;4991901;28;20053;-71
2022/10/21 11:35:14;;;;;;;16.23;10.70;;;17.80;99.90;;;;;;4991199;28;20050;-70
2022/10/21 11:37:56;;;;;;;14.82;10.48;;;17.70;99.90;;;;;;4991162;28;20050;-70
2022/10/21 11:40:22;;;;;;;17.50;11.18;;;17.70;99.90;;;;;;4991837;28;20058;-71
2022/10/21 11:42:51;;;;;;;16.05;10.50;;;17.80;99.90;;;;;;4991479;28;20423;-70
2022/10/21 11:45:44;;;;;;;13.65;9.48;;;17.80;99.90;;;;;;4975662;28;20060;-70
2022/10/21 11:48:21;;;;;;;15.52;9.77;;;17.90;99.90;;;;;;4991825;28;20128;-70
2022/10/21 11:50:58;;;;;;;15.23;9.77;;;18.00;99.90;;;;;;4990886;28;20490;-70
2022/10/21 11:53:24;;;;;;;17.70;9.95;;;18.00;99.90;;;;;;4975669;28;20054;-70
2022/10/21 11:55:59;;;;;;;12.13;8.75;;;18.00;99.90;;;;;;4975109;28;20902;-70
2022/10/21 11:58:31;;;;;;;17.33;9.60;;;18.00;99.90;;;;;;4975133;28;20438;-70
2022/10/21 12:01:13;;;;;;;16.30;10.00;;;17.90;99.90;;;;;;4991270;28;20070;-70
2022/10/21 12:04:00;;;;;;;14.90;10.02;;;17.90;99.90;;;;;;4983163;28;20054;-70
2022/10/21 12:06:29;;;;;;;14.60;10.07;;;17.80;99.90;;;;;;4975139;28;20054;-70
2022/10/21 12:08:58;;;;;;;19.65;11.30;;;17.90;99.90;;;;;;4990729;28;20065;-69
2022/10/21 12:11:49;;;;;;;15.10;10.00;;;17.80;99.90;;;;;;4991197;28;20089;-71
2022/10/21 12:14:45;;;;;;;16.92;9.80;;;17.90;99.90;;;;;;4990927;28;20130;-70
2022/10/21 12:17:17;;;;;;;14.82;9.57;;;17.90;99.90;;;;;;4982730;28;20046;-70
2022/10/21 12:19:46;;;;;;;;;;;17.90;99.90;;;;;;4975227;28;20058;-71
2022/10/21 12:22:12;;;;;;;18.50;9.13;;;17.80;99.90;;;;;;4974470;28;19929;-70
2022/10/21 12:24:54;;;;;;;15.98;9.77;;;17.80;99.90;;;;;;4990900;28;20128;-71
2022/10/21 12:27:45;;;;;;;17.08;8.93;;;17.80;99.90;;;;;;4990546;28;20399;-71
2022/10/21 12:30:17;;;;;;;15.93;9.15;;;17.80;99.90;;;;;;4990541;28;20058;-70
2022/10/21 12:33:08;;;;;;;18.00;10.25;;;17.80;99.90;;;;;;4990566;28;20415;-71
2022/10/21 12:35:49;;;;;;;14.43;8.97;;;17.80;99.90;;;;;;4990757;28;20054;-70
2022/10/21 12:38:24;;;;;;;15.88;9.30;;;17.80;99.90;;;;;;4974399;28;20050;-70
2022/10/21 12:41:22;;;;;;;17.10;9.50;;;17.80;99.90;;;;;;4990479;28;20050;-71
2022/10/21 12:44:01;;;;;;;15.68;9.98;;;17.80;99.90;;;;;;4990545;28;20042;-70
2022/10/21 12:46:29;;;;;;;18.15;9.70;;;17.80;99.90;;;;;;4990489;28;20514;-70
2022/10/21 12:48:55;;;;;;;19.23;10.82;;;17.80;99.90;;;;;;4974380;28;20085;-70